sensor_id;sensor_type;location;lat;lon;timestamp;P1;durP1;ratioP1;P2;durP2;ratioP2
43696;SDS011;29301;47.620;19.560;2022-09-09T00:06:31;0.30;;;0.20;;
43696;SDS011;29301;47.620;19.560;2022-09-09T00:09:18;0.35;;;0.20;;
43696;SDS011;29301;47.620;19.560;2022-09-09T00:11:47;0.30;;;0.20;;
43696;SDS011;29301;47.620;19.560;2022-09-09T00:14:20;0.40;;;0.20;;
43696;SDS011;29301;47.620;19.560;2022-09-09T00:16:50;0.30;;;0.20;;
43696;SDS011;29301;47.620;19.560;2022-09-09T00:19:24;0.32;;;0.22;;
43696;SDS011;29301;47.620;19.560;2022-09-09T00:22:18;0.30;;;0.20;;
43696;SDS011;29301;47.620;19.560;2022-09-09T00:27:15;0.35;;;0.25;;
43696;SDS011;29301;47.620;19.560;2022-09-09T00:30:12;0.30;;;0.20;;
43696;SDS011;29301;47.620;19.560;2022-09-09T00:32:39;0.30;;;0.20;;
43696;SDS011;29301;47.620;19.560;2022-09-09T00:37:55;0.30;;;0.20;;
43696;SDS011;29301;47.620;19.560;2022-09-09T00:40:35;0.30;;;0.20;;
43696;SDS011;29301;47.620;19.560;2022-09-09T00:43:14;0.40;;;0.20;;
43696;SDS011;29301;47.620;19.560;2022-09-09T00:46:21;0.30;;;0.20;;
43696;SDS011;29301;47.620;19.560;2022-09-09T00:52:03;0.30;;;0.20;;
43696;SDS011;29301;47.620;19.560;2022-09-09T00:57:29;0.30;;;0.20;;
43696;SDS011;29301;47.620;19.560;2022-09-09T01:05:44;0.30;;;0.20;;
43696;SDS011;29301;47.620;19.560;2022-09-09T01:11:02;0.40;;;0.20;;
43696;SDS011;29301;47.620;19.560;2022-09-09T01:13:29;0.30;;;0.20;;
43696;SDS011;29301;47.620;19.560;2022-09-09T01:15:59;0.40;;;0.20;;
43696;SDS011;29301;47.620;19.560;2022-09-09T01:18:34;0.40;;;0.30;;
43696;SDS011;29301;47.620;19.560;2022-09-09T01:27:05;0.40;;;0.30;;
43696;SDS011;29301;47.620;19.560;2022-09-09T01:29:32;0.30;;;0.20;;
43696;SDS011;29301;47.620;19.560;2022-09-09T01:32:02;0.30;;;0.20;;
43696;SDS011;29301;47.620;19.560;2022-09-09T01:34:49;0.30;;;0.20;;
43696;SDS011;29301;47.620;19.560;2022-09-09T01:37:16;0.38;;;0.20;;
43696;SDS011;29301;47.620;19.560;2022-09-09T01:39:42;0.30;;;0.20;;
43696;SDS011;29301;47.620;19.560;2022-09-09T01:42:09;0.30;;;0.20;;
43696;SDS011;29301;47.620;19.560;2022-09-09T01:44:39;0.30;;;0.20;;
43696;SDS011;29301;47.620;19.560;2022-09-09T01:47:05;0.30;;;0.20;;
43696;SDS011;29301;47.620;19.560;2022-09-09T01:49:31;0.40;;;0.22;;
43696;SDS011;29301;47.620;19.560;2022-09-09T01:51:58;0.30;;;0.20;;
43696;SDS011;29301;47.620;19.560;2022-09-09T01:54:25;0.40;;;0.30;;
43696;SDS011;29301;47.620;19.560;2022-09-09T02:00:04;0.30;;;0.20;;
43696;SDS011;29301;47.620;19.560;2022-09-09T02:03:00;0.30;;;0.20;;
43696;SDS011;29301;47.620;19.560;2022-09-09T02:05:41;0.40;;;0.30;;
43696;SDS011;29301;47.620;19.560;2022-09-09T02:08:16;0.30;;;0.20;;
43696;SDS011;29301;47.620;19.560;2022-09-09T02:11:05;0.40;;;0.30;;
43696;SDS011;29301;47.620;19.560;2022-09-09T02:13:38;0.40;;;0.30;;
43696;SDS011;29301;47.620;19.560;2022-09-09T02:16:08;0.30;;;0.20;;
43696;SDS011;29301;47.620;19.560;2022-09-09T02:18:42;0.40;;;0.30;;
43696;SDS011;29301;47.620;19.560;2022-09-09T02:21:16;0.40;;;0.20;;
43696;SDS011;29301;47.620;19.560;2022-09-09T02:23:42;0.40;;;0.22;;
43696;SDS011;29301;47.620;19.560;2022-09-09T02:26:12;0.30;;;0.20;;
43696;SDS011;29301;47.620;19.560;2022-09-09T02:28:44;0.30;;;0.20;;
43696;SDS011;29301;47.620;19.560;2022-09-09T02:31:12;0.30;;;0.20;;
43696;SDS011;29301;47.620;19.560;2022-09-09T02:33:43;0.30;;;0.20;;
43696;SDS011;29301;47.620;19.560;2022-09-09T02:36:14;0.40;;;0.27;;
43696;SDS011;29301;47.620;19.560;2022-09-09T02:38:46;0.40;;;0.28;;
43696;SDS011;29301;47.620;19.560;2022-09-09T02:41:22;0.30;;;0.20;;
43696;SDS011;29301;47.620;19.560;2022-09-09T02:49:01;0.30;;;0.20;;
43696;SDS011;29301;47.620;19.560;2022-09-09T02:56:56;0.30;;;0.20;;
43696;SDS011;29301;47.620;19.560;2022-09-09T02:59:36;0.30;;;0.20;;
43696;SDS011;29301;47.620;19.560;2022-09-09T03:02:02;0.30;;;0.20;;
43696;SDS011;29301;47.620;19.560;2022-09-09T03:04:28;0.30;;;0.20;;
43696;SDS011;29301;47.620;19.560;2022-09-09T03:06:56;0.40;;;0.30;;
43696;SDS011;29301;47.620;19.560;2022-09-09T03:09:22;0.40;;;0.30;;
43696;SDS011;29301;47.620;19.560;2022-09-09T03:11:48;0.40;;;0.30;;
43696;SDS011;29301;47.620;19.560;2022-09-09T03:14:14;0.30;;;0.20;;
43696;SDS011;29301;47.620;19.560;2022-09-09T03:16:40;0.30;;;0.20;;
43696;SDS011;29301;47.620;19.560;2022-09-09T03:19:07;0.40;;;0.30;;
43696;SDS011;29301;47.620;19.560;2022-09-09T03:21:33;0.40;;;0.30;;
43696;SDS011;29301;47.620;19.560;2022-09-09T03:23:59;0.30;;;0.20;;
43696;SDS011;29301;47.620;19.560;2022-09-09T03:26:25;0.30;;;0.20;;
43696;SDS011;29301;47.620;19.560;2022-09-09T03:28:50;0.38;;;0.28;;
43696;SDS011;29301;47.620;19.560;2022-09-09T03:31:17;0.35;;;0.25;;
43696;SDS011;29301;47.620;19.560;2022-09-09T03:33:44;0.40;;;0.20;;
43696;SDS011;29301;47.620;19.560;2022-09-09T03:36:10;0.30;;;0.20;;
43696;SDS011;29301;47.620;19.560;2022-09-09T03:38:36;0.40;;;0.28;;
43696;SDS011;29301;47.620;19.560;2022-09-09T03:41:02;0.30;;;0.20;;
43696;SDS011;29301;47.620;19.560;2022-09-09T03:43:27;0.30;;;0.20;;
43696;SDS011;29301;47.620;19.560;2022-09-09T03:45:54;0.40;;;0.22;;
43696;SDS011;29301;47.620;19.560;2022-09-09T03:48:21;0.40;;;0.30;;
43696;SDS011;29301;47.620;19.560;2022-09-09T03:50:48;0.35;;;0.20;;
43696;SDS011;29301;47.620;19.560;2022-09-09T03:53:16;0.40;;;0.28;;
43696;SDS011;29301;47.620;19.560;2022-09-09T03:55:51;0.40;;;0.20;;
43696;SDS011;29301;47.620;19.560;2022-09-09T03:58:20;0.40;;;0.20;;
43696;SDS011;29301;47.620;19.560;2022-09-09T04:03:44;0.40;;;0.30;;
43696;SDS011;29301;47.620;19.560;2022-09-09T04:06:10;0.40;;;0.30;;
43696;SDS011;29301;47.620;19.560;2022-09-09T04:08:38;0.40;;;0.20;;
43696;SDS011;29301;47.620;19.560;2022-09-09T04:11:04;0.30;;;0.20;;
43696;SDS011;29301;47.620;19.560;2022-09-09T04:13:31;0.30;;;0.20;;
43696;SDS011;29301;47.620;19.560;2022-09-09T04:15:59;0.30;;;0.20;;
43696;SDS011;29301;47.620;19.560;2022-09-09T04:18:26;0.40;;;0.20;;
43696;SDS011;29301;47.620;19.560;2022-09-09T04:20:55;0.40;;;0.30;;
43696;SDS011;29301;47.620;19.560;2022-09-09T04:23:22;0.40;;;0.30;;
43696;SDS011;29301;47.620;19.560;2022-09-09T04:25:50;0.30;;;0.30;;
43696;SDS011;29301;47.620;19.560;2022-09-09T04:28:17;0.35;;;0.25;;
43696;SDS011;29301;47.620;19.560;2022-09-09T04:30:45;0.40;;;0.20;;
43696;SDS011;29301;47.620;19.560;2022-09-09T04:33:11;0.40;;;0.30;;
43696;SDS011;29301;47.620;19.560;2022-09-09T04:35:37;0.40;;;0.20;;
43696;SDS011;29301;47.620;19.560;2022-09-09T04:38:03;0.40;;;0.30;;
43696;SDS011;29301;47.620;19.560;2022-09-09T04:40:30;0.40;;;0.20;;
43696;SDS011;29301;47.620;19.560;2022-09-09T04:42:59;0.40;;;0.30;;
43696;SDS011;29301;47.620;19.560;2022-09-09T04:45:27;0.30;;;0.20;;
43696;SDS011;29301;47.620;19.560;2022-09-09T04:47:53;0.30;;;0.20;;
43696;SDS011;29301;47.620;19.560;2022-09-09T04:50:19;0.40;;;0.28;;
43696;SDS011;29301;47.620;19.560;2022-09-09T04:52:45;0.40;;;0.30;;
43696;SDS011;29301;47.620;19.560;2022-09-09T04:55:11;0.30;;;0.20;;
43696;SDS011;29301;47.620;19.560;2022-09-09T04:57:38;0.40;;;0.22;;
43696;SDS011;29301;47.620;19.560;2022-09-09T05:00:04;0.40;;;0.30;;
43696;SDS011;29301;47.620;19.560;2022-09-09T05:02:30;0.30;;;0.20;;
43696;SDS011;29301;47.620;19.560;2022-09-09T05:04:57;0.35;;;0.20;;
43696;SDS011;29301;47.620;19.560;2022-09-09T05:07:23;0.30;;;0.20;;
43696;SDS011;29301;47.620;19.560;2022-09-09T05:09:51;0.30;;;0.20;;
43696;SDS011;29301;47.620;19.560;2022-09-09T05:12:17;0.40;;;0.30;;
43696;SDS011;29301;47.620;19.560;2022-09-09T05:14:43;0.40;;;0.30;;
43696;SDS011;29301;47.620;19.560;2022-09-09T05:17:09;0.40;;;0.30;;
43696;SDS011;29301;47.620;19.560;2022-09-09T05:19:35;0.30;;;0.20;;
43696;SDS011;29301;47.620;19.560;2022-09-09T05:22:02;0.30;;;0.20;;
43696;SDS011;29301;47.620;19.560;2022-09-09T05:24:27;0.30;;;0.20;;
43696;SDS011;29301;47.620;19.560;2022-09-09T05:26:54;0.30;;;0.20;;
43696;SDS011;29301;47.620;19.560;2022-09-09T05:29:23;0.40;;;0.30;;
43696;SDS011;29301;47.620;19.560;2022-09-09T05:31:48;0.30;;;0.20;;
43696;SDS011;29301;47.620;19.560;2022-09-09T05:34:14;0.30;;;0.20;;
43696;SDS011;29301;47.620;19.560;2022-09-09T05:36:40;0.30;;;0.20;;
43696;SDS011;29301;47.620;19.560;2022-09-09T05:39:05;0.40;;;0.20;;
43696;SDS011;29301;47.620;19.560;2022-09-09T05:41:31;0.40;;;0.30;;
43696;SDS011;29301;47.620;19.560;2022-09-09T05:43:57;0.30;;;0.20;;
43696;SDS011;29301;47.620;19.560;2022-09-09T05:46:26;0.40;;;0.28;;
43696;SDS011;29301;47.620;19.560;2022-09-09T05:48:52;0.38;;;0.30;;
43696;SDS011;29301;47.620;19.560;2022-09-09T05:51:22;0.30;;;0.20;;
43696;SDS011;29301;47.620;19.560;2022-09-09T05:53:50;0.40;;;0.20;;
43696;SDS011;29301;47.620;19.560;2022-09-09T05:56:17;0.40;;;0.20;;
43696;SDS011;29301;47.620;19.560;2022-09-09T05:58:45;0.30;;;0.20;;
43696;SDS011;29301;47.620;19.560;2022-09-09T06:01:15;0.30;;;0.20;;
43696;SDS011;29301;47.620;19.560;2022-09-09T06:03:44;0.30;;;0.20;;
43696;SDS011;29301;47.620;19.560;2022-09-09T06:06:12;0.32;;;0.22;;
43696;SDS011;29301;47.620;19.560;2022-09-09T06:08:40;0.32;;;0.22;;
43696;SDS011;29301;47.620;19.560;2022-09-09T06:14:02;0.32;;;0.20;;
43696;SDS011;29301;47.620;19.560;2022-09-09T06:16:29;0.30;;;0.20;;
43696;SDS011;29301;47.620;19.560;2022-09-09T06:18:57;0.40;;;0.20;;
43696;SDS011;29301;47.620;19.560;2022-09-09T06:21:24;0.30;;;0.20;;
43696;SDS011;29301;47.620;19.560;2022-09-09T06:23:55;0.30;;;0.25;;
43696;SDS011;29301;47.620;19.560;2022-09-09T06:26:31;0.40;;;0.30;;
43696;SDS011;29301;47.620;19.560;2022-09-09T06:28:59;0.30;;;0.20;;
43696;SDS011;29301;47.620;19.560;2022-09-09T06:31:27;0.30;;;0.20;;
43696;SDS011;29301;47.620;19.560;2022-09-09T06:33:58;0.30;;;0.20;;
43696;SDS011;29301;47.620;19.560;2022-09-09T06:36:29;0.40;;;0.30;;
43696;SDS011;29301;47.620;19.560;2022-09-09T06:38:56;0.30;;;0.20;;
43696;SDS011;29301;47.620;19.560;2022-09-09T06:41:23;0.30;;;0.20;;
43696;SDS011;29301;47.620;19.560;2022-09-09T06:43:51;0.30;;;0.20;;
43696;SDS011;29301;47.620;19.560;2022-09-09T06:46:17;0.30;;;0.20;;
43696;SDS011;29301;47.620;19.560;2022-09-09T06:48:45;0.30;;;0.20;;
43696;SDS011;29301;47.620;19.560;2022-09-09T06:51:14;0.30;;;0.20;;
43696;SDS011;29301;47.620;19.560;2022-09-09T06:53:46;0.30;;;0.20;;
43696;SDS011;29301;47.620;19.560;2022-09-09T06:58:55;0.35;;;0.20;;
43696;SDS011;29301;47.620;19.560;2022-09-09T07:01:27;0.30;;;0.20;;
43696;SDS011;29301;47.620;19.560;2022-09-09T07:03:55;0.30;;;0.20;;
43696;SDS011;29301;47.620;19.560;2022-09-09T07:06:45;0.40;;;0.20;;
43696;SDS011;29301;47.620;19.560;2022-09-09T07:09:12;0.30;;;0.20;;
43696;SDS011;29301;47.620;19.560;2022-09-09T07:14:07;0.30;;;0.20;;
43696;SDS011;29301;47.620;19.560;2022-09-09T07:16:33;0.30;;;0.20;;
43696;SDS011;29301;47.620;19.560;2022-09-09T07:19:02;0.30;;;0.20;;
43696;SDS011;29301;47.620;19.560;2022-09-09T07:21:29;0.30;;;0.20;;
43696;SDS011;29301;47.620;19.560;2022-09-09T07:23:56;0.28;;;0.20;;
43696;SDS011;29301;47.620;19.560;2022-09-09T07:26:22;0.30;;;0.20;;
43696;SDS011;29301;47.620;19.560;2022-09-09T07:28:50;0.30;;;0.20;;
43696;SDS011;29301;47.620;19.560;2022-09-09T07:31:17;0.28;;;0.20;;
43696;SDS011;29301;47.620;19.560;2022-09-09T07:33:44;0.30;;;0.20;;
43696;SDS011;29301;47.620;19.560;2022-09-09T07:36:21;0.20;;;0.20;;
43696;SDS011;29301;47.620;19.560;2022-09-09T07:38:52;0.25;;;0.20;;
43696;SDS011;29301;47.620;19.560;2022-09-09T07:41:52;0.20;;;0.20;;
43696;SDS011;29301;47.620;19.560;2022-09-09T07:44:13;0.30;;;0.20;;
43696;SDS011;29301;47.620;19.560;2022-09-09T07:46:40;0.30;;;0.20;;
43696;SDS011;29301;47.620;19.560;2022-09-09T07:49:07;0.20;;;0.20;;
43696;SDS011;29301;47.620;19.560;2022-09-09T07:51:34;0.20;;;0.20;;
43696;SDS011;29301;47.620;19.560;2022-09-09T07:54:03;0.20;;;0.20;;
43696;SDS011;29301;47.620;19.560;2022-09-09T07:56:31;0.20;;;0.20;;
43696;SDS011;29301;47.620;19.560;2022-09-09T07:58:58;0.30;;;0.20;;
43696;SDS011;29301;47.620;19.560;2022-09-09T08:01:31;0.28;;;0.20;;
43696;SDS011;29301;47.620;19.560;2022-09-09T08:04:05;0.28;;;0.20;;
43696;SDS011;29301;47.620;19.560;2022-09-09T08:06:40;0.10;;;0.10;;
43696;SDS011;29301;47.620;19.560;2022-09-09T08:09:18;0.20;;;0.17;;
43696;SDS011;29301;47.620;19.560;2022-09-09T08:11:43;0.20;;;0.20;;
43696;SDS011;29301;47.620;19.560;2022-09-09T08:14:09;0.10;;;0.10;;
43696;SDS011;29301;47.620;19.560;2022-09-09T08:16:38;0.10;;;0.10;;
43696;SDS011;29301;47.620;19.560;2022-09-09T08:19:05;0.20;;;0.20;;
43696;SDS011;29301;47.620;19.560;2022-09-09T08:21:32;0.20;;;0.20;;
43696;SDS011;29301;47.620;19.560;2022-09-09T08:24:01;0.10;;;0.10;;
43696;SDS011;29301;47.620;19.560;2022-09-09T08:26:28;0.10;;;0.10;;
43696;SDS011;29301;47.620;19.560;2022-09-09T08:28:56;0.10;;;0.10;;
43696;SDS011;29301;47.620;19.560;2022-09-09T08:31:24;0.15;;;0.15;;
43696;SDS011;29301;47.620;19.560;2022-09-09T08:33:53;0.10;;;0.10;;
43696;SDS011;29301;47.620;19.560;2022-09-09T08:36:20;0.10;;;0.10;;
43696;SDS011;29301;47.620;19.560;2022-09-09T08:38:47;0.10;;;0.10;;
43696;SDS011;29301;47.620;19.560;2022-09-09T08:43:47;0.10;;;0.10;;
43696;SDS011;29301;47.620;19.560;2022-09-09T08:46:19;0.10;;;0.10;;
43696;SDS011;29301;47.620;19.560;2022-09-09T08:49:15;0.10;;;0.10;;
43696;SDS011;29301;47.620;19.560;2022-09-09T08:51:48;0.10;;;0.10;;
43696;SDS011;29301;47.620;19.560;2022-09-09T08:54:15;0.10;;;0.10;;
43696;SDS011;29301;47.620;19.560;2022-09-09T08:56:41;0.10;;;0.10;;
43696;SDS011;29301;47.620;19.560;2022-09-09T08:59:07;0.10;;;0.10;;
43696;SDS011;29301;47.620;19.560;2022-09-09T09:07:07;0.10;;;0.10;;
43696;SDS011;29301;47.620;19.560;2022-09-09T09:12:17;0.10;;;0.10;;
43696;SDS011;29301;47.620;19.560;2022-09-09T09:14:46;0.10;;;0.10;;
43696;SDS011;29301;47.620;19.560;2022-09-09T09:17:14;0.10;;;0.10;;
43696;SDS011;29301;47.620;19.560;2022-09-09T09:19:44;0.10;;;0.10;;
43696;SDS011;29301;47.620;19.560;2022-09-09T09:22:19;0.10;;;0.10;;
43696;SDS011;29301;47.620;19.560;2022-09-09T09:28:03;0.10;;;0.10;;
43696;SDS011;29301;47.620;19.560;2022-09-09T09:30:42;0.10;;;0.10;;
43696;SDS011;29301;47.620;19.560;2022-09-09T09:35:46;0.10;;;0.10;;
43696;SDS011;29301;47.620;19.560;2022-09-09T09:38:20;0.10;;;0.10;;
43696;SDS011;29301;47.620;19.560;2022-09-09T09:40:57;0.10;;;0.10;;
43696;SDS011;29301;47.620;19.560;2022-09-09T09:43:33;0.10;;;0.10;;
43696;SDS011;29301;47.620;19.560;2022-09-09T09:46:03;0.10;;;0.10;;
43696;SDS011;29301;47.620;19.560;2022-09-09T09:48:29;0.10;;;0.10;;
43696;SDS011;29301;47.620;19.560;2022-09-09T09:50:59;0.10;;;0.10;;
43696;SDS011;29301;47.620;19.560;2022-09-09T09:53:30;0.10;;;0.10;;
43696;SDS011;29301;47.620;19.560;2022-09-09T09:58:26;0.10;;;0.10;;
43696;SDS011;29301;47.620;19.560;2022-09-09T10:00:57;0.10;;;0.10;;
43696;SDS011;29301;47.620;19.560;2022-09-09T10:05:50;0.10;;;0.10;;
43696;SDS011;29301;47.620;19.560;2022-09-09T10:08:16;0.10;;;0.10;;
43696;SDS011;29301;47.620;19.560;2022-09-09T10:19:21;0.10;;;0.10;;
43696;SDS011;29301;47.620;19.560;2022-09-09T10:24:39;0.10;;;0.10;;
43696;SDS011;29301;47.620;19.560;2022-09-09T10:30:22;0.10;;;0.10;;
43696;SDS011;29301;47.620;19.560;2022-09-09T10:48:45;0.10;;;0.10;;
43696;SDS011;29301;47.620;19.560;2022-09-09T10:51:23;0.10;;;0.10;;
43696;SDS011;29301;47.620;19.560;2022-09-09T10:56:42;0.10;;;0.10;;
43696;SDS011;29301;47.620;19.560;2022-09-09T11:01:44;0.10;;;0.10;;
43696;SDS011;29301;47.620;19.560;2022-09-09T11:04:14;0.10;;;0.10;;
43696;SDS011;29301;47.620;19.560;2022-09-09T11:06:48;0.00;;;0.00;;
43696;SDS011;29301;47.620;19.560;2022-09-09T11:09:18;0.10;;;0.10;;
43696;SDS011;29301;47.620;19.560;2022-09-09T11:11:57;0.10;;;0.10;;
43696;SDS011;29301;47.620;19.560;2022-09-09T11:14:33;0.10;;;0.10;;
43696;SDS011;29301;47.620;19.560;2022-09-09T11:17:12;0.10;;;0.10;;
43696;SDS011;29301;47.620;19.560;2022-09-09T11:19:43;0.10;;;0.10;;
43696;SDS011;29301;47.620;19.560;2022-09-09T11:22:18;0.03;;;0.03;;
43696;SDS011;29301;47.620;19.560;2022-09-09T11:38:15;0.10;;;0.10;;
43696;SDS011;29301;47.620;19.560;2022-09-09T11:40:56;0.10;;;0.10;;
43696;SDS011;29301;47.620;19.560;2022-09-09T11:43:41;0.10;;;0.10;;
43696;SDS011;29301;47.620;19.560;2022-09-09T11:46:09;0.10;;;0.10;;
43696;SDS011;29301;47.620;19.560;2022-09-09T11:48:41;0.08;;;0.08;;
43696;SDS011;29301;47.620;19.560;2022-09-09T11:54:46;0.10;;;0.10;;
43696;SDS011;29301;47.620;19.560;2022-09-09T11:56:54;0.10;;;0.10;;
43696;SDS011;29301;47.620;19.560;2022-09-09T12:01:54;0.10;;;0.10;;
43696;SDS011;29301;47.620;19.560;2022-09-09T12:04:50;0.10;;;0.10;;
43696;SDS011;29301;47.620;19.560;2022-09-09T12:07:48;0.10;;;0.10;;
43696;SDS011;29301;47.620;19.560;2022-09-09T12:10:26;0.10;;;0.10;;
43696;SDS011;29301;47.620;19.560;2022-09-09T12:13:07;0.10;;;0.10;;
43696;SDS011;29301;47.620;19.560;2022-09-09T12:15:48;0.10;;;0.10;;
43696;SDS011;29301;47.620;19.560;2022-09-09T12:18:21;0.08;;;0.08;;
43696;SDS011;29301;47.620;19.560;2022-09-09T12:20:52;0.10;;;0.10;;
43696;SDS011;29301;47.620;19.560;2022-09-09T12:23:38;0.05;;;0.05;;
43696;SDS011;29301;47.620;19.560;2022-09-09T12:36:44;0.10;;;0.10;;
43696;SDS011;29301;47.620;19.560;2022-09-09T12:39:18;0.10;;;0.10;;
43696;SDS011;29301;47.620;19.560;2022-09-09T12:41:51;0.10;;;0.10;;
43696;SDS011;29301;47.620;19.560;2022-09-09T12:44:22;0.10;;;0.10;;
43696;SDS011;29301;47.620;19.560;2022-09-09T12:46:49;0.10;;;0.10;;
43696;SDS011;29301;47.620;19.560;2022-09-09T12:49:33;0.10;;;0.10;;
43696;SDS011;29301;47.620;19.560;2022-09-09T12:52:06;0.00;;;0.00;;
43696;SDS011;29301;47.620;19.560;2022-09-09T12:54:43;0.10;;;0.10;;
43696;SDS011;29301;47.620;19.560;2022-09-09T12:57:15;0.10;;;0.10;;
43696;SDS011;29301;47.620;19.560;2022-09-09T12:59:42;0.10;;;0.10;;
43696;SDS011;29301;47.620;19.560;2022-09-09T13:02:24;0.10;;;0.10;;
43696;SDS011;29301;47.620;19.560;2022-09-09T13:04:51;0.10;;;0.10;;
43696;SDS011;29301;47.620;19.560;2022-09-09T13:07:19;0.10;;;0.10;;
43696;SDS011;29301;47.620;19.560;2022-09-09T13:09:47;0.10;;;0.10;;
43696;SDS011;29301;47.620;19.560;2022-09-09T13:12:18;0.10;;;0.10;;
43696;SDS011;29301;47.620;19.560;2022-09-09T13:14:46;0.10;;;0.10;;
43696;SDS011;29301;47.620;19.560;2022-09-09T13:19:52;0.10;;;0.10;;
43696;SDS011;29301;47.620;19.560;2022-09-09T13:22:31;0.10;;;0.10;;
43696;SDS011;29301;47.620;19.560;2022-09-09T13:25:04;0.10;;;0.10;;
43696;SDS011;29301;47.620;19.560;2022-09-09T13:28:33;0.10;;;0.10;;
43696;SDS011;29301;47.620;19.560;2022-09-09T13:30:55;0.10;;;0.10;;
43696;SDS011;29301;47.620;19.560;2022-09-09T13:33:37;0.10;;;0.10;;
43696;SDS011;29301;47.620;19.560;2022-09-09T13:36:06;0.10;;;0.10;;
43696;SDS011;29301;47.620;19.560;2022-09-09T13:38:35;0.10;;;0.10;;
43696;SDS011;29301;47.620;19.560;2022-09-09T13:41:19;0.10;;;0.10;;
43696;SDS011;29301;47.620;19.560;2022-09-09T13:43:48;0.10;;;0.10;;
43696;SDS011;29301;47.620;19.560;2022-09-09T13:46:24;0.10;;;0.10;;
43696;SDS011;29301;47.620;19.560;2022-09-09T13:48:57;0.10;;;0.10;;
43696;SDS011;29301;47.620;19.560;2022-09-09T13:51:34;0.10;;;0.10;;
43696;SDS011;29301;47.620;19.560;2022-09-09T13:54:03;0.10;;;0.10;;
43696;SDS011;29301;47.620;19.560;2022-09-09T13:56:34;0.10;;;0.10;;
43696;SDS011;29301;47.620;19.560;2022-09-09T13:59:02;0.10;;;0.10;;
43696;SDS011;29301;47.620;19.560;2022-09-09T14:01:29;0.10;;;0.10;;
43696;SDS011;29301;47.620;19.560;2022-09-09T14:03:54;0.10;;;0.10;;
43696;SDS011;29301;47.620;19.560;2022-09-09T14:06:21;0.10;;;0.10;;
43696;SDS011;29301;47.620;19.560;2022-09-09T14:08:47;0.00;;;0.00;;
43696;SDS011;29301;47.620;19.560;2022-09-09T14:11:17;0.10;;;0.10;;
43696;SDS011;29301;47.620;19.560;2022-09-09T14:13:43;0.10;;;0.10;;
43696;SDS011;29301;47.620;19.560;2022-09-09T14:16:09;0.00;;;0.00;;
43696;SDS011;29301;47.620;19.560;2022-09-09T14:18:35;0.10;;;0.10;;
43696;SDS011;29301;47.620;19.560;2022-09-09T14:21:02;0.10;;;0.10;;
43696;SDS011;29301;47.620;19.560;2022-09-09T14:23:28;0.10;;;0.10;;
43696;SDS011;29301;47.620;19.560;2022-09-09T14:25:54;0.10;;;0.10;;
43696;SDS011;29301;47.620;19.560;2022-09-09T14:28:20;0.10;;;0.10;;
43696;SDS011;29301;47.620;19.560;2022-09-09T14:30:46;0.10;;;0.10;;
43696;SDS011;29301;47.620;19.560;2022-09-09T14:33:13;0.10;;;0.10;;
43696;SDS011;29301;47.620;19.560;2022-09-09T14:35:41;0.10;;;0.10;;
43696;SDS011;29301;47.620;19.560;2022-09-09T14:38:07;0.10;;;0.10;;
43696;SDS011;29301;47.620;19.560;2022-09-09T14:40:34;0.10;;;0.10;;
43696;SDS011;29301;47.620;19.560;2022-09-09T14:43:01;0.00;;;0.00;;
43696;SDS011;29301;47.620;19.560;2022-09-09T14:45:27;0.10;;;0.10;;
43696;SDS011;29301;47.620;19.560;2022-09-09T14:47:53;0.10;;;0.10;;
43696;SDS011;29301;47.620;19.560;2022-09-09T14:50:20;0.10;;;0.10;;
43696;SDS011;29301;47.620;19.560;2022-09-09T14:52:46;0.00;;;0.00;;
43696;SDS011;29301;47.620;19.560;2022-09-09T14:55:12;0.10;;;0.10;;
43696;SDS011;29301;47.620;19.560;2022-09-09T14:57:38;0.10;;;0.10;;
43696;SDS011;29301;47.620;19.560;2022-09-09T15:00:05;0.10;;;0.10;;
43696;SDS011;29301;47.620;19.560;2022-09-09T15:02:33;0.10;;;0.10;;
43696;SDS011;29301;47.620;19.560;2022-09-09T15:04:59;0.10;;;0.10;;
43696;SDS011;29301;47.620;19.560;2022-09-09T15:07:26;0.10;;;0.10;;
43696;SDS011;29301;47.620;19.560;2022-09-09T15:09:53;0.10;;;0.10;;
43696;SDS011;29301;47.620;19.560;2022-09-09T15:12:19;0.10;;;0.10;;
43696;SDS011;29301;47.620;19.560;2022-09-09T15:14:45;0.10;;;0.10;;
43696;SDS011;29301;47.620;19.560;2022-09-09T15:17:12;0.10;;;0.10;;
43696;SDS011;29301;47.620;19.560;2022-09-09T15:19:37;0.10;;;0.10;;
43696;SDS011;29301;47.620;19.560;2022-09-09T15:22:04;0.10;;;0.10;;
43696;SDS011;29301;47.620;19.560;2022-09-09T15:24:31;0.10;;;0.10;;
43696;SDS011;29301;47.620;19.560;2022-09-09T15:26:57;0.10;;;0.10;;
43696;SDS011;29301;47.620;19.560;2022-09-09T15:29:23;0.10;;;0.10;;
43696;SDS011;29301;47.620;19.560;2022-09-09T15:31:49;0.05;;;0.05;;
43696;SDS011;29301;47.620;19.560;2022-09-09T15:34:14;0.10;;;0.10;;
43696;SDS011;29301;47.620;19.560;2022-09-09T15:36:41;0.10;;;0.10;;
43696;SDS011;29301;47.620;19.560;2022-09-09T15:39:11;0.10;;;0.10;;
43696;SDS011;29301;47.620;19.560;2022-09-09T15:41:40;0.10;;;0.10;;
43696;SDS011;29301;47.620;19.560;2022-09-09T15:44:07;0.10;;;0.10;;
43696;SDS011;29301;47.620;19.560;2022-09-09T15:46:36;0.10;;;0.10;;
43696;SDS011;29301;47.620;19.560;2022-09-09T15:51:29;0.10;;;0.10;;
43696;SDS011;29301;47.620;19.560;2022-09-09T15:53:55;0.10;;;0.10;;
43696;SDS011;29301;47.620;19.560;2022-09-09T15:56:22;0.10;;;0.10;;
43696;SDS011;29301;47.620;19.560;2022-09-09T15:58:49;0.10;;;0.10;;
43696;SDS011;29301;47.620;19.560;2022-09-09T16:01:14;0.10;;;0.10;;
43696;SDS011;29301;47.620;19.560;2022-09-09T16:03:42;0.10;;;0.10;;
43696;SDS011;29301;47.620;19.560;2022-09-09T16:06:10;0.00;;;0.00;;
43696;SDS011;29301;47.620;19.560;2022-09-09T16:08:37;0.10;;;0.10;;
43696;SDS011;29301;47.620;19.560;2022-09-09T16:11:05;0.10;;;0.10;;
43696;SDS011;29301;47.620;19.560;2022-09-09T16:13:34;0.10;;;0.10;;
43696;SDS011;29301;47.620;19.560;2022-09-09T16:16:04;0.10;;;0.10;;
43696;SDS011;29301;47.620;19.560;2022-09-09T16:18:35;0.10;;;0.10;;
43696;SDS011;29301;47.620;19.560;2022-09-09T16:21:02;0.10;;;0.10;;
43696;SDS011;29301;47.620;19.560;2022-09-09T16:23:30;0.10;;;0.10;;
43696;SDS011;29301;47.620;19.560;2022-09-09T16:26:00;0.10;;;0.10;;
43696;SDS011;29301;47.620;19.560;2022-09-09T16:28:26;0.10;;;0.10;;
43696;SDS011;29301;47.620;19.560;2022-09-09T16:30:52;0.10;;;0.10;;
43696;SDS011;29301;47.620;19.560;2022-09-09T16:33:18;0.10;;;0.10;;
43696;SDS011;29301;47.620;19.560;2022-09-09T16:35:45;0.10;;;0.10;;
43696;SDS011;29301;47.620;19.560;2022-09-09T16:38:11;0.20;;;0.20;;
43696;SDS011;29301;47.620;19.560;2022-09-09T16:40:37;0.13;;;0.13;;
43696;SDS011;29301;47.620;19.560;2022-09-09T16:43:03;0.10;;;0.10;;
43696;SDS011;29301;47.620;19.560;2022-09-09T16:45:30;0.10;;;0.10;;
43696;SDS011;29301;47.620;19.560;2022-09-09T16:47:57;0.10;;;0.10;;
43696;SDS011;29301;47.620;19.560;2022-09-09T16:50:24;0.10;;;0.10;;
43696;SDS011;29301;47.620;19.560;2022-09-09T16:52:50;0.10;;;0.10;;
43696;SDS011;29301;47.620;19.560;2022-09-09T16:55:16;0.10;;;0.10;;
43696;SDS011;29301;47.620;19.560;2022-09-09T16:57:45;0.20;;;0.20;;
43696;SDS011;29301;47.620;19.560;2022-09-09T17:00:13;0.10;;;0.10;;
43696;SDS011;29301;47.620;19.560;2022-09-09T17:02:41;0.10;;;0.10;;
43696;SDS011;29301;47.620;19.560;2022-09-09T17:05:08;0.10;;;0.10;;
43696;SDS011;29301;47.620;19.560;2022-09-09T17:07:34;0.10;;;0.10;;
43696;SDS011;29301;47.620;19.560;2022-09-09T17:10:00;0.20;;;0.20;;
43696;SDS011;29301;47.620;19.560;2022-09-09T17:12:27;0.15;;;0.15;;
43696;SDS011;29301;47.620;19.560;2022-09-09T17:14:52;0.20;;;0.20;;
43696;SDS011;29301;47.620;19.560;2022-09-09T17:17:20;0.10;;;0.10;;